Rankings de siempre
Mejores tiempos personales válidos de equipo a través de todos los eventos y temporadas. Cada equipo aparece una vez por división.
Busca por nombre y abre la página donde está clasificado este récord de división.
135,116 equipos clasificados
| Pos. | Pos. AG | Equipo | Nacionalidad | Categoría de edad | TiempoMejor tiempo | Diferencia |
|---|---|---|---|---|---|---|
| 133776 | #16747 | Zi Yong Theng & Faulyne Gagarin TanSIN · X 35-39 · AG #16747 | SIN | X 35-39 | 2:13:32 | +84:19 |
| 133777 | #46603 | Seher Hatun & Tamer AktasGER · X 30-34 · AG #46603 | GER | X 30-34 | 2:13:33 | +84:20 |
| 133778 | #3186 | Alex Piquero & Nicole PiqueroUSA · X 50-54 · AG #3186 | USA | X 50-54 | 2:13:34 | +84:21 |
| 133779 | #20466 | Dominick Eatough & Gabrielle MarsdenGBR · X 25-29 · AG #20466 | GBR | X 25-29 | 2:13:35 | +84:22 |
| 133780 | #46604 | Daniel WAAKA-IRAIA & Josephine WAITENZL · X 30-34 · AG #46604 | NZL | X 30-34 | 2:13:35 | +84:22 |
| 133781 | #584 | Christopher Harris & Trudi BrocasNZL · X 55-59 · AG #584 | NZL | X 55-59 | 2:13:36 | +84:23 |
| 133782 | -- | Mia Gorgan & Bryce RichardsonUSA · X XU29 | USA | X XU29 | 2:13:36 | +84:23 |
| 133783 | #46605 | Rachel BAROUCH & Brandon MENDELSOHNUSA · X 30-34 · AG #46605 | USA | X 30-34 | 2:13:36 | +84:23 |
| 133784 | #46606 | Sivuyisiwe Nqini & Gugulethu RajuiliRSA · X 30-34 · AG #46606 | RSA | X 30-34 | 2:13:36 | +84:23 |
| 133785 | #16748 | Benedetto Lorusso & Fabiana FilipponioITA · X 35-39 · AG #16748 | ITA | X 35-39 | 2:13:37 | +84:24 |
| 133786 | #46607 | Eugenio Pollini & Eleonora PolliniITA · X 30-34 · AG #46607 | ITA | X 30-34 | 2:13:37 | +84:24 |
| 133787 | #18055 | Gianna Bostedt & Bobby RadfarUSA · X 40-44 · AG #18055 | USA | X 40-44 | 2:13:37 | +84:24 |
| 133788 | #16749 | Richard Perez & Christina HolmesUSA · X 35-39 · AG #16749 | USA | X 35-39 | 2:13:37 | +84:24 |
| 133789 | #18056 | Barry Scallan & Emma Hamilton AndersonIRL · X 40-44 · AG #18056 | IRL | X 40-44 | 2:13:38 | +84:25 |
| 133790 | #16750 | Kevin Egan & Anna EganCAN · X 35-39 · AG #16750 | CAN | X 35-39 | 2:13:38 | +84:25 |
| 133791 | #16751 | Elson Wong & Alvina FuSIN · X 35-39 · AG #16751 | SIN | X 35-39 | 2:13:39 | +84:26 |
| 133792 | #9168 | Joel Smith & Olivia DougalGBR · X 16-24 · AG #9168 | GBR | X 16-24 | 2:13:41 | +84:28 |
| 133793 | #3187 | Mark Wilson & Sarah WilmotX 50-54 · AG #3187 | -- | X 50-54 | 2:13:42 | +84:29 |
| 133794 | #9169 | Bailian Marquez & Haylee MarquezUSA · X 16-24 · AG #9169 | USA | X 16-24 | 2:13:42 | +84:29 |
| 133795 | #3188 | Clinton Rudman & Valette PowlesRSA · X 50-54 · AG #3188 | RSA | X 50-54 | 2:13:42 | +84:29 |
| 133796 | #4583 | Crystal Ward & Jason WardUSA · X 45-49 · AG #4583 | USA | X 45-49 | 2:13:43 | +84:30 |
| 133797 | #16752 | Richard Rankin & Daniela AssunçãoX 35-39 · AG #16752 | -- | X 35-39 | 2:13:44 | +84:31 |
| 133798 | #253 | Jürgen Kraus & Angelika GöhlGER · X 60-64 · AG #253 | GER | X 60-64 | 2:13:44 | +84:31 |
| 133799 | #46608 | Jodie McCulloch & Stewart McCullochGBR · X 30-34 · AG #46608 | GBR | X 30-34 | 2:13:44 | +84:31 |
| 133800 | #18057 | Rino LaCerra & Rino La CerraUSA · X 40-44 · AG #18057 | USA | X 40-44 | 2:13:46 | +84:33 |
Página 5,352 de 5,405